Time;durP1;ratioP1;P1;durP2;ratioP2;P2;SDS_P1;SDS_P2;PMS_P1;PMS_P2;Temp;Humidity;BMP_temperature;BMP_pressure;BME280_temperature;BME280_humidity;BME280_pressure;Samples;Min_cycle;Max_cycle;Signal;HPM_P1;HPM_P2
2023/03/12 00:00:10;;;;;;;31.40;14.25;;;;;;;3.11;100.00;97782.47;4888140;29;20043;-81
2023/03/12 00:02:38;;;;;;;31.15;15.27;;;;;;;3.07;100.00;97770.84;4887047;29;20040;-82
2023/03/12 00:05:04;;;;;;;28.70;14.00;;;;;;;3.25;100.00;97766.13;4888827;29;20120;-81
2023/03/12 00:07:29;;;;;;;29.73;14.57;;;;;;;3.29;100.00;97762.19;4921374;29;20430;-81
2023/03/12 00:09:55;;;;;;;28.30;13.98;;;;;;;3.16;100.00;97759.44;4918860;29;20036;-81
2023/03/12 00:12:21;;;;;;;30.70;14.65;;;;;;;3.11;100.00;97757.38;4887515;29;20496;-80
2023/03/12 00:14:46;;;;;;;24.30;13.20;;;;;;;3.22;100.00;97758.72;4917743;29;20492;-82
2023/03/12 00:17:12;;;;;;;24.50;11.95;;;;;;;3.25;100.00;97747.97;4888946;29;20052;-81
2023/03/12 00:19:38;;;;;;;23.60;12.05;;;;;;;3.46;100.00;97750.84;4889931;29;20509;-82
2023/03/12 00:22:03;;;;;;;26.52;12.20;;;;;;;3.48;100.00;97757.44;4885500;29;20063;-82
2023/03/12 00:24:34;;;;;;;21.63;11.75;;;;;;;3.47;100.00;97739.47;4920725;29;20052;-81
2023/03/12 00:27:00;;;;;;;22.27;11.45;;;;;;;3.64;100.00;97746.06;4904284;29;20040;-81
2023/03/12 00:29:26;;;;;;;24.38;11.80;;;;;;;3.32;100.00;97742.88;4921222;29;20043;-81
2023/03/12 00:31:54;;;;;;;18.55;10.45;;;;;;;3.32;100.00;97742.06;4904199;29;20068;-82
2023/03/12 00:34:20;;;;;;;17.55;9.43;;;;;;;3.20;100.00;97734.75;4917957;29;20059;-82
2023/03/12 00:36:45;;;;;;;15.20;9.10;;;;;;;3.14;100.00;97749.22;4905599;29;20036;-82
2023/03/12 00:39:11;;;;;;;14.05;8.60;;;;;;;3.39;100.00;97737.78;4905786;29;20127;-81
2023/03/12 00:41:37;;;;;;;16.17;9.00;;;;;;;3.29;100.00;97738.06;4905451;29;20047;-82
2023/03/12 00:44:02;;;;;;;15.25;8.70;;;;;;;3.46;100.00;97738.66;4906364;29;20115;-82
2023/03/12 00:46:28;;;;;;;12.02;7.10;;;;;;;3.37;100.00;97730.16;4903375;29;20062;-82
2023/03/12 00:48:53;;;;;;;13.73;7.47;;;;;;;3.46;100.00;97732.69;4883501;29;20040;-81
2023/03/12 00:51:19;;;;;;;15.20;7.78;;;;;;;3.45;100.00;97724.09;4919883;29;20493;-81
2023/03/12 00:53:45;;;;;;;12.75;7.18;;;;;;;3.72;100.00;97734.75;4902621;29;20076;-82
2023/03/12 00:56:14;;;;;;;13.45;7.63;;;;;;;3.72;100.00;97726.97;4907958;29;20144;-82
2023/03/12 00:58:41;;;;;;;12.82;7.47;;;;;;;3.77;100.00;97739.41;4917998;29;20040;-82
2023/03/12 01:01:07;;;;;;;15.90;9.18;;;;;;;3.82;100.00;97740.47;4901280;29;20136;-81
2023/03/12 01:03:32;;;;;;;24.90;12.52;;;;;;;3.90;100.00;97723.16;4887961;29;20118;-82
2023/03/12 01:06:09;;;;;;;37.63;13.10;;;;;;;3.96;100.00;97714.66;4888776;29;20119;-82
2023/03/12 01:12:26;;;;;;;28.75;10.88;;;;;;;3.85;100.00;97700.38;4872942;29;20398;-81
2023/03/12 01:14:52;;;;;;;24.63;10.98;;;;;;;3.81;100.00;97709.50;4888879;29;20048;-80
2023/03/12 01:17:17;;;;;;;18.65;9.27;;;;;;;3.83;100.00;97707.53;4906275;29;20036;-81
2023/03/12 01:19:43;;;;;;;17.35;9.30;;;;;;;3.79;100.00;97706.28;4906535;29;20487;-81
2023/03/12 01:22:09;;;;;;;17.90;9.18;;;;;;;3.78;100.00;97709.88;4920335;29;20051;-80
2023/03/12 01:24:34;;;;;;;18.58;10.25;;;;;;;3.86;100.00;97702.78;4902085;29;20387;-81
2023/03/12 01:27:03;;;;;;;14.43;8.63;;;;;;;4.17;100.00;97707.88;4906551;29;20040;-81
2023/03/12 01:29:28;;;;;;;18.35;9.48;;;;;;;4.18;100.00;97704.28;4889006;29;20114;-81
2023/03/12 01:31:54;;;;;;;19.92;9.50;;;;;;;4.12;100.00;97695.44;4903347;29;20046;-81
2023/03/12 01:34:19;;;;;;;16.42;8.75;;;;;;;4.19;100.00;97695.50;4923945;29;20475;-81
2023/03/12 01:36:46;;;;;;;18.13;9.63;;;;;;;4.22;100.00;97695.13;4906601;29;20502;-81
2023/03/12 01:39:12;;;;;;;17.02;8.90;;;;;;;4.38;100.00;97694.88;4907263;29;20032;-81
2023/03/12 01:41:38;;;;;;;19.13;10.38;;;;;;;4.41;100.00;97688.47;4903423;29;20077;-81
2023/03/12 01:44:04;;;;;;;19.33;10.60;;;;;;;4.44;100.00;97688.13;4908273;29;20048;-81
2023/03/12 01:46:31;;;;;;;23.52;11.23;;;;;;;4.32;100.00;97687.00;4902753;29;20468;-81
2023/03/12 01:49:08;;;;;;;16.70;9.32;;;;;;;4.48;100.00;97683.31;4918319;29;20076;-81
2023/03/12 01:51:42;;;;;;;17.13;9.30;;;;;;;4.52;100.00;97681.94;4917379;29;20393;-81
2023/03/12 01:54:15;;;;;;;;;;;;;;;4.56;100.00;97678.78;4905499;29;20436;-81
2023/03/12 01:56:41;;;;;;;18.25;10.32;;;;;;;4.38;100.00;97674.06;4906395;29;20366;-81
2023/03/12 01:59:14;;;;;;;19.08;9.02;;;;;;;4.36;100.00;97678.66;4906053;29;20099;-80
2023/03/12 02:01:41;;;;;;;15.13;8.20;;;;;;;4.35;100.00;97679.66;4890542;29;20447;-81
2023/03/12 02:04:06;;;;;;;13.20;7.40;;;;;;;4.36;100.00;97676.06;4908525;29;20600;-80
2023/03/12 02:06:48;;;;;;;12.85;7.00;;;;;;;4.59;100.00;97672.44;4907054;29;20107;-79
2023/03/12 02:09:14;;;;;;;14.30;6.95;;;;;;;4.56;100.00;97665.00;4918616;29;20566;-80
2023/03/12 02:11:40;;;;;;;10.15;5.93;;;;;;;4.21;100.00;97664.94;4905029;29;20071;-80
2023/03/12 02:14:05;;;;;;;8.95;4.88;;;;;;;4.23;100.00;97665.56;4924237;29;20083;-81
2023/03/12 02:16:32;;;;;;;5.78;3.92;;;;;;;4.24;100.00;97664.56;4888275;29;20041;-80
2023/03/12 02:19:00;;;;;;;6.70;4.50;;;;;;;4.32;100.00;97664.41;4909195;29;20088;-80
2023/03/12 02:21:32;;;;;;;7.47;4.28;;;;;;;4.39;100.00;97656.69;4904946;29;20135;-80
2023/03/12 02:24:46;;;;;;;6.88;3.95;;;;;;;4.58;100.00;97657.81;4919499;29;20115;-80
2023/03/12 02:27:12;;;;;;;8.80;4.67;;;;;;;4.56;100.00;97660.59;4903855;29;20065;-81
2023/03/12 02:29:39;;;;;;;10.07;5.03;;;;;;;4.70;100.00;97656.28;4909457;29;20792;-80
2023/03/12 02:32:08;;;;;;;13.65;5.35;;;;;;;4.93;100.00;97644.84;4886449;29;20068;-80
2023/03/12 02:34:34;;;;;;;9.30;5.57;;;;;;;4.96;100.00;97644.44;4907118;29;20036;-80
2023/03/12 02:37:00;;;;;;;11.57;6.45;;;;;;;5.12;100.00;97647.72;4925529;29;20506;-80
2023/03/12 02:39:27;;;;;;;15.05;7.47;;;;;;;5.24;100.00;97646.16;4908691;29;20475;-80
2023/03/12 02:41:57;;;;;;;20.38;10.10;;;;;;;5.46;100.00;97645.25;4906359;29;20487;-80
2023/03/12 02:44:26;;;;;;;18.23;8.88;;;;;;;5.57;100.00;97645.47;4903539;29;20044;-80
2023/03/12 02:46:55;;;;;;;26.20;10.75;;;;;;;5.72;100.00;97641.91;4890620;29;20036;-81
2023/03/12 02:49:23;;;;;;;25.73;10.50;;;;;;;6.16;100.00;97636.38;4897416;29;20044;-81
2023/03/12 02:51:49;;;;;;;29.58;11.65;;;;;;;6.11;100.00;97642.16;4905439;29;20407;-81
2023/03/12 02:54:17;;;;;;;33.97;13.57;;;;;;;6.35;100.00;97645.16;4908447;29;20132;-80
2023/03/12 02:56:42;;;;;;;38.53;13.55;;;;;;;6.43;100.00;97642.38;4908949;29;20475;-81
2023/03/12 02:59:09;;;;;;;31.63;13.13;;;;;;;6.43;100.00;97648.38;4904335;29;20036;-81
2023/03/12 03:01:35;;;;;;;55.30;17.42;;;;;;;6.77;100.00;97644.91;4907307;29;20110;-80
2023/03/12 03:04:02;;;;;;;39.90;16.35;;;;;;;6.63;100.00;97647.53;4891975;29;20115;-80
2023/03/12 03:06:28;;;;;;;41.75;17.60;;;;;;;6.61;100.00;97643.56;4904759;29;20028;-81
2023/03/12 03:08:54;;;;;;;38.58;15.73;;;;;;;6.67;100.00;97642.72;4892409;29;20072;-81
2023/03/12 03:11:23;;;;;;;37.95;14.23;;;;;;;6.83;100.00;97651.91;4882347;29;20036;-81
2023/03/12 03:13:52;;;;;;;37.95;14.15;;;;;;;6.93;100.00;97651.50;4891028;29;20072;-81
2023/03/12 03:16:17;;;;;;;44.92;15.02;;;;;;;6.99;100.00;97654.09;4882493;29;20052;-81
2023/03/12 03:18:43;;;;;;;39.90;14.45;;;;;;;7.01;100.00;97659.09;4887797;29;20044;-80
2023/03/12 03:21:09;;;;;;;40.45;15.60;;;;;;;7.12;100.00;97660.28;4888792;29;20111;-81
2023/03/12 03:23:35;;;;;;;41.55;16.35;;;;;;;7.16;100.00;97656.25;4900852;29;20072;-81
2023/03/12 03:26:01;;;;;;;33.80;15.38;;;;;;;7.05;100.00;97680.34;4887049;29;20037;-80
2023/03/12 03:28:28;;;;;;;32.35;15.15;;;;;;;7.11;100.00;97684.78;4887177;29;20107;-81
2023/03/12 03:31:00;;;;;;;41.35;15.93;;;;;;;7.10;100.00;97681.34;4886076;29;20373;-80
2023/03/12 03:33:30;;;;;;;41.17;15.35;;;;;;;7.29;100.00;97677.09;4891541;29;20037;-80
2023/03/12 03:35:58;;;;;;;40.05;14.82;;;;;;;7.00;100.00;97679.16;4884355;29;20041;-79
2023/03/12 03:38:25;;;;;;;33.60;16.30;;;;;;;7.16;100.00;97671.91;4888280;29;20123;-79
2023/03/12 03:40:51;;;;;;;42.97;16.60;;;;;;;7.22;100.00;97680.72;4888886;29;20129;-80
2023/03/12 03:43:17;;;;;;;35.63;16.50;;;;;;;7.17;100.00;97677.91;4917667;29;20171;-80
2023/03/12 03:45:46;;;;;;;29.90;13.00;;;;;;;7.13;100.00;97674.94;4916959;29;20037;-80
2023/03/12 03:48:12;;;;;;;28.83;13.80;;;;;;;7.19;100.00;97684.53;4887879;29;20113;-80
2023/03/12 03:50:38;;;;;;;32.25;15.50;;;;;;;7.22;100.00;97681.50;4884070;29;20112;-79
2023/03/12 03:53:05;;;;;;;34.20;15.48;;;;;;;7.21;100.00;97685.13;4885195;29;20040;-79
2023/03/12 03:55:34;;;;;;;40.40;15.40;;;;;;;7.09;100.00;97692.00;4886739;29;20084;-80
2023/03/12 03:58:00;;;;;;;32.45;14.18;;;;;;;7.05;100.00;97706.44;4888509;29;20040;-79
2023/03/12 04:00:25;;;;;;;30.27;13.32;;;;;;;7.10;100.00;97706.66;4884643;29;20044;-79
2023/03/12 04:02:51;;;;;;;41.20;14.90;;;;;;;7.09;100.00;97715.50;4889295;29;20455;-79
2023/03/12 04:05:18;;;;;;;43.45;16.05;;;;;;;7.10;100.00;97699.59;4883192;29;20387;-80
2023/03/12 04:07:44;;;;;;;40.35;14.43;;;;;;;7.28;100.00;97716.44;4886489;29;20052;-80
2023/03/12 04:10:10;;;;;;;47.47;15.82;;;;;;;7.28;100.00;97713.81;4887318;29;20047;-80
2023/03/12 04:12:35;;;;;;;36.55;15.40;;;;;;;7.16;100.00;97724.09;4916448;29;20503;-80
2023/03/12 04:15:02;;;;;;;31.45;12.35;;;;;;;7.08;100.00;97703.44;4918115;29;20040;-79
2023/03/12 04:17:27;;;;;;;38.03;14.10;;;;;;;7.31;100.00;97721.22;4886681;29;20760;-81
2023/03/12 04:19:53;;;;;;;52.33;16.45;;;;;;;7.35;100.00;97711.19;4882597;29;20119;-81
2023/03/12 04:22:18;;;;;;;45.13;15.13;;;;;;;7.28;100.00;97717.25;4920216;29;20082;-79
2023/03/12 04:24:44;;;;;;;39.13;14.80;;;;;;;7.27;100.00;97713.03;4882492;29;20049;-80
2023/03/12 04:27:09;;;;;;;40.83;15.10;;;;;;;7.38;100.00;97724.63;4888053;29;20041;-80
2023/03/12 04:29:35;;;;;;;48.08;14.98;;;;;;;7.28;100.00;97711.22;4889711;29;20077;-79
2023/03/12 04:32:00;;;;;;;36.15;12.65;;;;;;;7.22;100.00;97727.69;4887647;29;20045;-79
2023/03/12 04:34:26;;;;;;;38.25;13.45;;;;;;;7.09;100.00;97712.88;4889932;29;20104;-79
2023/03/12 04:36:51;;;;;;;46.97;13.45;;;;;;;7.06;100.00;97719.28;4886904;29;20041;-80
2023/03/12 04:39:18;;;;;;;27.95;12.25;;;;;;;7.19;100.00;97741.94;4886879;29;20041;-78
2023/03/12 04:41:44;;;;;;;35.72;11.80;;;;;;;7.10;100.00;97724.91;4885750;29;20435;-81
2023/03/12 04:44:10;;;;;;;27.85;10.00;;;;;;;7.00;100.00;97710.47;4885095;29;20041;-79
2023/03/12 04:46:36;;;;;;;29.25;10.57;;;;;;;6.95;100.00;97723.34;4913436;29;20044;-79
2023/03/12 04:49:01;;;;;;;37.00;11.18;;;;;;;7.04;100.00;97726.53;4884828;29;20057;-79
2023/03/12 04:51:28;;;;;;;32.15;11.80;;;;;;;7.16;100.00;97718.88;4887204;29;20049;-82
2023/03/12 04:53:54;;;;;;;33.08;11.27;;;;;;;6.92;100.00;97718.53;4886599;29;20045;-82
2023/03/12 04:56:20;;;;;;;23.77;10.38;;;;;;;6.83;100.00;97730.16;4889011;29;20403;-81
2023/03/12 04:58:45;;;;;;;31.23;12.02;;;;;;;6.82;100.00;97718.94;4887409;29;20041;-81
2023/03/12 05:01:21;;;;;;;32.15;10.32;;;;;;;6.97;100.00;97730.94;4915469;29;20061;-81
2023/03/12 05:03:47;;;;;;;28.95;10.68;;;;;;;6.98;100.00;97722.13;4916031;29;20045;-81
2023/03/12 05:06:12;;;;;;;38.80;10.48;;;;;;;6.80;100.00;97720.94;4883459;29;20089;-81
2023/03/12 05:08:38;;;;;;;27.05;9.80;;;;;;;6.83;100.00;97719.72;4887618;29;20061;-80
2023/03/12 05:11:03;;;;;;;28.90;11.75;;;;;;;6.83;100.00;97730.16;4917177;29;20036;-80
2023/03/12 05:13:29;;;;;;;33.75;11.68;;;;;;;6.85;100.00;97709.88;4912063;29;20103;-80
2023/03/12 05:15:55;;;;;;;41.72;13.27;;;;;;;7.04;100.00;97715.28;4885453;29;20033;-82
2023/03/12 05:18:20;;;;;;;41.53;12.02;;;;;;;6.99;100.00;97721.91;4888581;29;20124;-81
2023/03/12 05:20:56;;;;;;;41.90;13.07;;;;;;;7.06;100.00;97727.13;4887476;29;20047;-81
2023/03/12 05:23:21;;;;;;;46.28;13.57;;;;;;;7.02;100.00;97731.16;4885369;29;20033;-81
2023/03/12 05:25:47;;;;;;;43.13;13.75;;;;;;;6.93;100.00;97730.56;4886217;29;20399;-81
2023/03/12 05:28:12;;;;;;;36.70;13.25;;;;;;;6.87;100.00;97741.78;4884358;29;20037;-81
2023/03/12 05:30:38;;;;;;;35.17;12.07;;;;;;;6.91;100.00;97745.63;4882119;29;20081;-81
2023/03/12 05:33:04;;;;;;;41.92;12.20;;;;;;;6.85;100.00;97738.59;4887142;29;20036;-81
2023/03/12 05:35:29;;;;;;;39.88;13.07;;;;;;;6.85;100.00;97738.59;4888031;29;20065;-81
2023/03/12 05:37:55;;;;;;;41.78;14.13;;;;;;;6.94;100.00;97726.94;4887270;29;20558;-81
2023/03/12 05:40:20;;;;;;;40.63;13.40;;;;;;;6.67;100.00;97745.22;4885829;29;20032;-81
2023/03/12 05:42:46;;;;;;;38.78;11.65;;;;;;;6.69;100.00;97745.03;4885341;29;20033;-80
2023/03/12 05:45:11;;;;;;;34.47;11.98;;;;;;;6.80;100.00;97743.63;4890785;29;20032;-80
2023/03/12 05:47:39;;;;;;;32.85;11.65;;;;;;;6.72;100.00;97740.22;4890809;29;20048;-81
2023/03/12 05:50:05;;;;;;;34.10;12.52;;;;;;;6.82;100.00;97749.44;4888998;29;20044;-81
2023/03/12 05:52:31;;;;;;;34.70;10.82;;;;;;;6.88;100.00;97759.06;4892521;29;20036;-82
2023/03/12 05:54:56;;;;;;;35.58;12.13;;;;;;;6.96;100.00;97761.47;4890234;29;20123;-81
2023/03/12 05:57:22;;;;;;;33.35;11.68;;;;;;;6.83;100.00;97756.25;4890779;29;20036;-81
2023/03/12 05:59:47;;;;;;;37.22;13.43;;;;;;;6.87;100.00;97762.66;4890092;29;20483;-81
2023/03/12 06:02:13;;;;;;;37.63;13.90;;;;;;;6.73;100.00;97751.44;4890629;29;20064;-81
2023/03/12 06:04:38;;;;;;;53.40;13.48;;;;;;;6.78;100.00;97743.00;4922374;29;20049;-81
2023/03/12 06:07:04;;;;;;;37.30;12.57;;;;;;;6.85;100.00;97754.22;4888214;29;20037;-81
2023/03/12 06:09:29;;;;;;;47.10;13.63;;;;;;;6.91;100.00;97766.50;4886050;29;20044;-81
2023/03/12 06:11:55;;;;;;;53.65;14.73;;;;;;;6.94;100.00;97758.25;4885621;29;20089;-80
2023/03/12 06:14:20;;;;;;;49.25;14.73;;;;;;;6.98;100.00;97753.44;4889802;29;20048;-81
2023/03/12 06:16:46;;;;;;;45.55;14.52;;;;;;;6.87;100.00;97762.66;4889086;29;20045;-80
2023/03/12 06:19:13;;;;;;;36.08;12.25;;;;;;;6.88;100.00;97760.88;4891894;29;20059;-81
2023/03/12 06:21:38;;;;;;;44.25;11.32;;;;;;;6.91;100.00;97747.41;4892014;29;20048;-81
2023/03/12 06:24:04;;;;;;;37.55;12.32;;;;;;;6.97;100.00;97751.81;4885645;29;20041;-81
2023/03/12 06:26:30;;;;;;;41.85;9.88;;;;;;;6.80;100.00;97761.88;4904944;29;20040;-82
2023/03/12 06:28:56;;;;;;;42.95;10.95;;;;;;;7.04;100.00;97772.69;4890893;29;20081;-81
2023/03/12 06:31:22;;;;;;;39.75;10.35;;;;;;;7.15;100.00;97774.69;4889748;29;20092;-81
2023/03/12 06:33:48;;;;;;;39.72;9.40;;;;;;;7.03;100.00;97773.69;4886841;29;20056;-82
2023/03/12 06:36:14;;;;;;;41.33;8.63;;;;;;;6.95;100.00;97790.34;4917778;29;20500;-81
2023/03/12 06:38:39;;;;;;;40.13;9.05;;;;;;;7.03;100.00;97782.31;4886862;29;20037;-81
2023/03/12 06:41:06;;;;;;;37.10;8.45;;;;;;;7.35;100.00;97784.28;4886122;29;20106;-81
2023/03/12 06:43:34;;;;;;;41.53;8.15;;;;;;;7.12;100.00;97791.53;4888681;29;20040;-82
2023/03/12 06:46:00;;;;;;;29.35;7.22;;;;;;;7.11;100.00;97796.97;4883923;29;20044;-83
2023/03/12 06:48:28;;;;;;;34.60;6.35;;;;;;;7.09;100.00;97799.78;4903700;29;20109;-81
2023/03/12 06:50:54;;;;;;;35.28;7.15;;;;;;;7.00;100.00;97777.53;4893047;29;20058;-83
2023/03/12 06:53:20;;;;;;;38.22;8.43;;;;;;;7.45;100.00;97773.41;4884485;29;20412;-82
2023/03/12 06:55:50;;;;;;;45.25;7.95;;;;;;;7.05;100.00;97767.28;4891885;29;20033;-82
2023/03/12 06:58:17;;;;;;;36.72;7.05;;;;;;;6.93;100.00;97748.81;4890002;29;20057;-81
2023/03/12 07:00:42;;;;;;;39.03;7.80;;;;;;;6.94;100.00;97740.00;4891052;29;20495;-82
2023/03/12 07:03:08;;;;;;;37.35;7.30;;;;;;;6.92;100.00;97739.41;4890749;29;20032;-82
2023/03/12 07:05:34;;;;;;;44.03;7.47;;;;;;;6.94;100.00;97755.63;4923618;29;20455;-81
2023/03/12 07:07:59;;;;;;;40.30;7.25;;;;;;;7.18;100.00;97731.72;4921674;29;20057;-82
2023/03/12 07:10:28;;;;;;;28.83;6.68;;;;;;;7.11;100.00;97750.78;4923535;29;20028;-81
2023/03/12 07:12:54;;;;;;;33.45;7.07;;;;;;;7.29;100.00;97776.28;4904095;29;20044;-81
2023/03/12 07:15:20;;;;;;;33.20;7.60;;;;;;;7.15;100.00;97774.69;4908688;29;20091;-82
2023/03/12 07:17:45;;;;;;;23.50;6.68;;;;;;;7.24;100.00;97775.28;4918315;29;20040;-81
2023/03/12 07:20:11;;;;;;;34.40;8.23;;;;;;;7.49;100.00;97790.25;4911167;29;20042;-82
2023/03/12 07:22:37;;;;;;;38.05;8.10;;;;;;;7.31;100.00;97788.31;4906370;29;20087;-80
2023/03/12 07:25:03;;;;;;;40.47;7.75;;;;;;;7.34;100.00;97804.34;4919506;29;20047;-80
2023/03/12 07:27:29;;;;;;;35.45;7.55;;;;;;;7.41;100.00;97794.72;4908203;29;20112;-81
2023/03/12 07:29:55;;;;;;;25.05;7.63;;;;;;;7.07;100.00;97803.56;4920386;29;20043;-81
2023/03/12 07:32:20;;;;;;;43.67;8.70;;;;;;;7.31;100.00;97804.75;4925027;29;20398;-81
2023/03/12 07:34:46;;;;;;;30.25;7.25;;;;;;;7.34;100.00;97803.56;4900916;29;20072;-81
2023/03/12 07:37:11;;;;;;;37.58;8.27;;;;;;;7.58;100.00;97823.78;4909252;29;20036;-80
2023/03/12 07:39:38;;;;;;;36.78;6.88;;;;;;;7.74;100.00;97818.31;4905993;29;20658;-81
2023/03/12 07:42:04;;;;;;;27.33;6.15;;;;;;;7.65;100.00;97829.00;4903710;29;20040;-81
2023/03/12 07:44:29;;;;;;;39.83;7.50;;;;;;;7.56;100.00;97828.41;4902845;29;20081;-81
2023/03/12 07:46:54;;;;;;;37.67;6.05;;;;;;;7.62;100.00;97839.03;4903972;29;20039;-81
2023/03/12 07:49:20;;;;;;;28.95;5.75;;;;;;;7.49;100.00;97845.91;4903081;29;20701;-81
2023/03/12 07:51:45;;;;;;;37.65;6.10;;;;;;;7.61;100.00;97840.84;4898798;29;20045;-81
2023/03/12 07:54:11;;;;;;;28.58;5.45;;;;;;;7.62;100.00;97836.44;4922897;29;20090;-82
2023/03/12 07:56:37;;;;;;;28.02;6.28;;;;;;;7.46;100.00;97832.44;4904570;29;20076;-81
2023/03/12 07:59:03;;;;;;;38.83;6.18;;;;;;;7.57;100.00;97829.22;4917642;29;20099;-80
2023/03/12 08:01:31;;;;;;;31.17;6.38;;;;;;;7.71;100.00;97830.78;4888048;29;20491;-80
2023/03/12 08:03:58;;;;;;;27.27;5.88;;;;;;;8.09;100.00;97824.00;4900616;29;20099;-81
2023/03/12 08:06:24;;;;;;;39.85;7.28;;;;;;;7.80;100.00;97814.88;4904260;29;20111;-82
2023/03/12 08:08:52;;;;;;;34.88;7.82;;;;;;;8.06;100.00;97811.38;4889219;29;20077;-81
2023/03/12 08:11:17;;;;;;;27.92;6.13;;;;;;;7.74;100.00;97821.72;4915773;29;20495;-81
2023/03/12 08:13:43;;;;;;;34.58;6.63;;;;;;;8.04;100.00;97829.03;4888181;29;20045;-81
2023/03/12 08:16:09;;;;;;;41.05;7.50;;;;;;;7.91;100.00;97831.72;4888502;29;20183;-81
2023/03/12 08:18:34;;;;;;;42.28;6.90;;;;;;;8.09;100.00;97820.59;4884424;29;20040;-82
2023/03/12 08:21:00;;;;;;;36.03;6.40;;;;;;;8.00;100.00;97822.63;4892264;29;20375;-82
2023/03/12 08:23:26;;;;;;;43.92;6.47;;;;;;;8.27;100.00;97832.97;4886397;29;21443;-84
2023/03/12 08:25:52;;;;;;;31.17;6.65;;;;;;;8.39;100.00;97831.28;4889207;29;20497;-85
2023/03/12 08:28:19;;;;;;;32.47;7.90;;;;;;;8.33;100.00;97821.69;4887140;29;20049;-84
2023/03/12 08:30:46;;;;;;;39.33;8.05;;;;;;;8.50;100.00;97824.59;4921616;29;20049;-82
2023/03/12 08:33:12;;;;;;;38.35;7.68;;;;;;;8.67;100.00;97838.00;4917984;29;20441;-81
2023/03/12 08:35:37;;;;;;;33.95;6.65;;;;;;;8.91;100.00;97832.19;4891379;29;20037;-82
2023/03/12 08:38:02;;;;;;;28.48;7.70;;;;;;;8.96;100.00;97845.44;4895429;29;20061;-83
2023/03/12 08:40:28;;;;;;;39.22;9.35;;;;;;;9.17;100.00;97835.63;4921595;29;20060;-81
2023/03/12 08:42:53;;;;;;;47.63;8.25;;;;;;;8.85;100.00;97852.97;4890602;29;20448;-84
2023/03/12 08:45:19;;;;;;;35.50;6.57;;;;;;;8.89;100.00;97850.72;4922420;29;20472;-83
2023/03/12 08:47:44;;;;;;;27.90;6.50;;;;;;;9.11;100.00;97852.97;4911819;29;20120;-84
2023/03/12 08:50:12;;;;;;;29.83;5.90;;;;;;;9.26;100.00;97829.06;4893390;29;20468;-84
2023/03/12 08:52:38;;;;;;;29.48;5.15;;;;;;;8.93;100.00;97833.59;4892776;29;20128;-83
2023/03/12 08:55:04;;;;;;;26.63;6.70;;;;;;;9.00;100.00;97826.47;4927401;29;20049;-83
2023/03/12 08:57:30;;;;;;;38.83;6.53;;;;;;;8.92;100.00;97818.06;4888014;29;20056;-80
2023/03/12 08:59:56;;;;;;;30.00;5.60;;;;;;;8.98;100.00;97819.88;4916235;29;20484;-81
2023/03/12 09:02:25;;;;;;;48.78;7.00;;;;;;;8.81;100.00;97814.34;4919619;29;20466;-82
2023/03/12 09:04:50;;;;;;;34.63;5.63;;;;;;;8.80;100.00;97823.19;4896289;29;20040;-82
2023/03/12 09:07:19;;;;;;;26.98;5.47;;;;;;;9.05;100.00;97815.38;4886155;29;20045;-81
2023/03/12 09:09:46;;;;;;;33.53;6.70;;;;;;;9.12;100.00;97817.94;4923134;29;20511;-83
2023/03/12 09:12:11;;;;;;;37.50;7.35;;;;;;;8.62;100.00;97806.44;4890747;29;20052;-83
2023/03/12 09:14:37;;;;;;;23.60;5.70;;;;;;;8.52;100.00;97817.34;4887295;29;20044;-82
2023/03/12 09:17:03;;;;;;;42.72;6.07;;;;;;;8.70;100.00;97829.72;4924844;29;20117;-82
2023/03/12 09:19:29;;;;;;;28.33;5.28;;;;;;;9.00;100.00;97821.22;4890308;29;20510;-82
2023/03/12 09:21:54;;;;;;;31.13;5.80;;;;;;;8.76;100.00;97820.22;4919016;29;20123;-84
2023/03/12 09:24:20;;;;;;;37.30;6.40;;;;;;;8.96;100.00;97829.75;4918625;29;20056;-80
2023/03/12 09:26:51;;;;;;;48.65;7.40;;;;;;;8.92;100.00;97829.38;4893009;29;20115;-80
2023/03/12 09:29:17;;;;;;;32.72;5.15;;;;;;;8.95;100.00;97823.69;4888364;29;20492;-81
2023/03/12 09:31:46;;;;;;;37.65;7.18;;;;;;;8.79;100.00;97850.38;4916330;29;20047;-80
2023/03/12 09:34:11;;;;;;;36.50;6.07;;;;;;;9.43;100.00;97829.31;4917713;29;20076;-80
2023/03/12 09:36:37;;;;;;;21.52;5.30;;;;;;;10.11;100.00;97840.66;4903545;29;20507;-81
2023/03/12 09:39:05;;;;;;;28.27;5.38;;;;;;;10.57;100.00;97838.47;4889304;29;20365;-80
2023/03/12 09:41:34;;;;;;;36.35;6.78;;;;;;;10.19;100.00;97842.19;4887575;29;20483;-81
2023/03/12 09:44:07;;;;;;;36.53;5.55;;;;;;;10.07;100.00;97836.88;4886030;29;20044;-81
2023/03/12 09:46:59;;;;;;;32.75;6.13;;;;;;;10.18;100.00;97834.53;4921057;29;20478;-80
2023/03/12 09:50:24;;;;;;;32.00;6.30;;;;;;;10.10;100.00;97828.56;4892477;29;20048;-81
2023/03/12 09:52:53;;;;;;;;;;;;;;;9.91;100.00;97827.78;4906425;29;20049;-81
2023/03/12 09:55:23;;;;;;;38.60;6.38;;;;;;;9.58;100.00;97839.44;4883067;29;19924;-83
2023/03/12 09:57:58;;;;;;;32.78;6.65;;;;;;;9.25;100.00;97825.66;4915694;29;20423;-80
2023/03/12 10:00:30;;;;;;;32.55;6.47;;;;;;;9.39;100.00;97821.09;4920052;29;20131;-80
2023/03/12 10:03:37;;;;;;;29.93;7.20;;;;;;;9.03;100.00;97829.66;4917053;29;20049;-80
2023/03/12 10:06:15;;;;;;;27.55;6.30;;;;;;;9.02;100.00;97825.44;4888873;29;20036;-81
2023/03/12 10:08:57;;;;;;;38.10;6.30;;;;;;;9.04;100.00;97826.03;4887217;29;20071;-82
2023/03/12 10:11:53;;;;;;;31.83;6.22;;;;;;;9.17;100.00;97825.94;4908563;29;20391;-81
2023/03/12 10:14:45;;;;;;;39.30;7.03;;;;;;;9.33;100.00;97819.31;4910019;29;20046;-82
2023/03/12 10:17:49;;;;;;;27.35;6.15;;;;;;;9.76;100.00;97822.91;4928164;29;20503;-86
2023/03/12 10:27:48;;;;;;;33.45;6.95;;;;;;;10.46;100.00;97810.38;4906311;29;20052;-83
2023/03/12 10:30:22;;;;;;;32.88;6.75;;;;;;;10.62;100.00;97798.44;4886370;29;20132;-83
2023/03/12 10:32:57;;;;;;;40.92;7.47;;;;;;;10.24;100.00;97795.09;4889646;29;20441;-84
2023/03/12 10:35:29;;;;;;;36.92;6.85;;;;;;;9.89;100.00;97816.72;4918368;29;20052;-86
2023/03/12 10:38:03;;;;;;;34.20;6.22;;;;;;;9.83;100.00;97821.03;4919000;29;20388;-85
2023/03/12 10:40:34;;;;;;;44.53;6.70;;;;;;;9.44;100.00;97804.75;4898156;29;20454;-84
2023/03/12 10:43:01;;;;;;;30.02;6.43;;;;;;;9.31;100.00;97807.47;4899557;29;20403;-85
2023/03/12 10:45:43;;;;;;;47.53;6.80;;;;;;;9.41;100.00;97811.19;4882985;29;20048;-85
2023/03/12 10:48:17;;;;;;;33.55;5.90;;;;;;;9.45;100.00;97811.59;4914169;29;20400;-86
2023/03/12 10:50:59;;;;;;;31.48;6.00;;;;;;;9.54;100.00;97819.94;4900019;29;20044;-85
2023/03/12 10:53:31;;;;;;;41.88;6.60;;;;;;;9.40;100.00;97798.31;4914143;29;20044;-86
2023/03/12 10:55:59;;;;;;;30.65;6.30;;;;;;;9.57;100.00;97804.59;4900158;29;20479;-86
2023/03/12 10:58:39;;;;;;;34.90;6.80;;;;;;;9.48;100.00;97792.00;4914303;29;20036;-85
2023/03/12 11:01:14;;;;;;;31.70;5.20;;;;;;;9.62;100.00;97801.31;4914282;29;20055;-83
2023/03/12 11:03:44;;;;;;;29.23;6.03;;;;;;;9.92;100.00;97810.25;4914027;29;20048;-86
2023/03/12 11:06:23;;;;;;;27.33;5.22;;;;;;;10.38;100.00;97803.59;4899837;29;20064;-86
2023/03/12 11:09:08;;;;;;;36.80;5.68;;;;;;;10.21;100.00;97811.28;4885006;29;20080;-85
2023/03/12 11:11:35;;;;;;;29.73;6.80;;;;;;;10.07;100.00;97787.06;4880478;29;20076;-84
2023/03/12 11:14:18;;;;;;;27.77;5.68;;;;;;;10.55;100.00;97818.72;4912064;29;20048;-85
2023/03/12 11:16:44;;;;;;;36.35;5.97;;;;;;;10.47;100.00;97800.69;4898222;29;20135;-86
2023/03/12 11:19:44;;;;;;;34.67;6.57;;;;;;;11.02;100.00;97809.34;4903188;29;20078;-86
2023/03/12 11:22:10;;;;;;;31.48;7.25;;;;;;;10.57;100.00;97806.97;4887293;29;20051;-88
2023/03/12 11:24:55;;;;;;;28.10;6.10;;;;;;;11.35;100.00;97797.44;4891041;29;20041;-87
2023/03/12 11:27:30;;;;;;;35.50;6.15;;;;;;;12.16;100.00;97823.00;4917114;29;20055;-88
2023/03/12 11:30:02;;;;;;;30.77;5.93;;;;;;;12.90;100.00;97802.91;4917682;29;20055;-89
2023/03/12 11:32:42;;;;;;;28.55;6.30;;;;;;;13.02;100.00;97787.03;4887752;29;20049;-88
2023/03/12 11:35:16;;;;;;;19.38;5.13;;;;;;;13.40;100.00;97789.94;4917622;29;20041;-87
2023/03/12 11:38:00;;;;;;;25.52;5.40;;;;;;;12.83;100.00;97802.28;4887841;29;20037;-91